Time;durP1;ratioP1;P1;durP2;ratioP2;P2;SDS_P1;SDS_P2;PMS_P1;PMS_P2;Temp;Humidity;BMP_temperature;BMP_pressure;BME280_temperature;BME280_humidity;BME280_pressure;Samples;Min_cycle;Max_cycle;Signal;HPM_P1;HPM_P2
2022/08/29 00:00:49;;;;;;;;;13.00;10.00;;;;;20.98;88.81;99407.25;6281013;20;2791966;-52
2022/08/29 00:03:18;;;;;;;;;10.00;8.00;;;;;20.92;89.05;99394.28;6317745;20;2777508;-51
2022/08/29 00:05:47;;;;;;;;;10.80;10.80;;;;;20.79;89.62;99405.69;6337881;20;2789996;-56
2022/08/29 00:08:18;;;;;;;;;10.67;9.00;;;;;20.70;90.68;99421.19;6284632;20;2763798;-52
2022/08/29 00:10:47;;;;;;;;;9.33;9.33;;;;;20.74;90.32;99414.38;6311359;20;2755516;-52
2022/08/29 00:13:16;;;;;;;;;9.33;9.33;;;;;20.89;89.39;99420.03;6312970;20;2755506;-54
2022/08/29 00:15:45;;;;;;;;;9.00;9.00;;;;;21.24;87.85;99413.41;6310359;20;2760887;-52
2022/08/29 00:18:17;;;;;;;;;9.00;9.00;;;;;21.39;87.00;99418.25;6335264;20;2743066;-50
2022/08/29 00:20:47;;;;;;;;;9.67;9.67;;;;;21.13;88.46;99418.38;6278521;20;2765924;-54
2022/08/29 00:23:17;;;;;;;;;12.33;12.00;;;;;21.18;89.34;99414.09;6311477;20;3520230;-55
2022/08/29 00:25:45;;;;;;;;;13.33;11.67;;;;;21.33;88.12;99416.16;6304574;20;3517130;-52
2022/08/29 00:28:14;;;;;;;;;11.00;10.00;;;;;21.38;87.96;99419.25;6306482;20;3509606;-54
2022/08/29 00:30:43;;;;;;;;;15.00;12.33;;;;;21.44;87.36;99418.59;6315655;20;2788929;-53
2022/08/29 00:33:12;;;;;;;;;10.00;10.00;;;;;21.30;88.75;99419.22;6303663;20;2791405;-51
2022/08/29 00:35:43;;;;;;;;;9.33;9.00;;;;;21.22;88.97;99426.41;6310167;20;2760855;-54
2022/08/29 00:38:16;;;;;;;;;14.00;12.00;;;;;21.02;89.97;99427.75;6304659;20;3503606;-53
2022/08/29 00:40:53;;;;;;;;;12.33;12.00;;;;;21.11;90.82;99432.19;6314016;20;2804448;-51
2022/08/29 00:43:29;;;;;;;;;12.00;12.00;;;;;21.06;90.13;99429.09;6314119;20;2798203;-49
2022/08/29 00:46:35;;;;;;;;;11.00;11.00;;;;;21.08;91.16;99423.47;6311723;20;2789005;-54
2022/08/29 00:49:31;;;;;;;;;14.00;13.00;;;;;21.32;89.38;99430.84;6313129;20;2804574;-55
2022/08/29 00:52:18;;;;;;;;;15.33;11.67;;;;;21.38;89.12;99430.19;6306244;20;2486112;-50
2022/08/29 00:54:51;;;;;;;;;11.67;10.33;;;;;21.44;88.87;99434.97;6310325;20;2784719;-51
2022/08/29 00:57:21;;;;;;;;;12.00;12.00;;;;;21.30;89.82;99435.63;6304895;20;2483687;-52
2022/08/29 00:59:51;;;;;;;;;13.00;13.00;;;;;21.41;90.02;99435.34;6304348;20;2788065;-50
2022/08/29 01:02:20;;;;;;;;;16.67;13.00;;;;;21.27;90.75;99431.34;6279645;20;3533607;-51
2022/08/29 01:04:49;;;;;;;;;17.33;13.67;;;;;21.37;90.57;99433.91;6309566;20;2818151;-54
2022/08/29 01:07:19;;;;;;;;;12.67;12.67;;;;;21.37;91.14;99431.19;6306523;20;2483599;-53
2022/08/29 01:09:47;;;;;;;;;14.00;13.00;;;;;21.08;92.41;99427.06;6307305;20;2492015;-52
2022/08/29 01:12:16;;;;;;;;;13.33;13.00;;;;;20.81;93.26;99429.06;6308173;20;3530427;-56
2022/08/29 01:15:01;;;;;;;;;15.67;12.33;;;;;20.79;93.00;99436.53;6274533;20;3529551;-54
2022/08/29 01:17:41;;;;;;;;;13.67;12.67;;;;;20.97;93.31;99438.31;6272373;20;3516953;-54
2022/08/29 01:21:00;;;;;;;;;14.00;9.00;;;;;20.66;94.23;99435.31;6305063;20;2771117;-52
2022/08/29 01:24:00;;;;;;;;;16.67;14.00;;;;;20.81;94.32;99434.50;6302611;20;2484116;-56
2022/08/29 01:26:30;;;;;;;;;17.00;16.00;;;;;20.91;95.09;99439.00;6308166;20;2826510;-53
2022/08/29 01:28:59;;;;;;;;;18.33;16.67;;;;;21.02;95.46;99433.19;6279223;20;3571161;-51
2022/08/29 01:31:44;;;;;;;;;17.00;17.00;;;;;20.98;95.41;99437.28;6276409;20;2829612;-50
2022/08/29 01:34:29;;;;;;;;;18.00;17.00;;;;;20.97;95.78;99441.03;6274156;20;2828368;-48
2022/08/29 01:37:04;;;;;;;;;15.00;15.00;;;;;20.92;96.85;99440.69;6274852;20;3537742;-49
2022/08/29 01:39:38;;;;;;;;;23.00;17.50;;;;;20.83;96.63;99443.41;6302344;20;2833715;-51
2022/08/29 01:42:21;;;;;;;;;16.00;16.00;;;;;20.79;97.32;99446.63;6278678;20;2823411;-48
2022/08/29 01:44:58;;;;;;;;;18.50;17.00;;;;;21.03;95.77;99443.09;6277788;20;2837794;-51
2022/08/29 01:47:36;;;;;;;;;22.00;18.33;;;;;20.94;96.38;99444.09;6281485;20;3575248;-49
2022/08/29 01:50:13;;;;;;;;;20.00;18.50;;;;;20.88;96.99;99439.28;6272049;20;2827406;-53
2022/08/29 01:52:43;;;;;;;;;18.00;17.00;;;;;20.93;96.71;99437.81;6276540;20;2540899;-50
2022/08/29 01:55:11;;;;;;;;;16.00;16.00;;;;;20.71;97.76;99439.25;6307847;20;2500488;-55
2022/08/29 01:57:41;;;;;;;;;17.67;16.67;;;;;20.69;97.45;99430.38;6309186;20;3573248;-56
2022/08/29 02:00:11;;;;;;;;;16.00;16.00;;;;;20.59;98.73;99440.59;6271992;20;2816965;-54
2022/08/29 02:02:42;;;;;;;;;20.50;16.50;;;;;20.70;97.89;99434.84;6272825;20;2830779;-53
2022/08/29 02:05:11;;;;;;;;;21.00;18.00;;;;;20.38;99.95;99436.38;6275303;20;2837803;-51
2022/08/29 02:07:39;;;;;;;;;17.33;15.67;;;;;20.54;99.28;99434.78;6277087;20;3555461;-54
2022/08/29 02:10:09;;;;;;;;;20.67;17.00;;;;;20.46;99.73;99430.13;6303572;20;3573280;-51
2022/08/29 02:12:38;;;;;;;;;19.00;16.00;;;;;20.33;99.90;99427.84;6277168;20;2833697;-52
2022/08/29 02:15:07;;;;;;;;;16.00;16.00;;;;;20.51;99.79;99426.88;6276615;20;2824201;-51
2022/08/29 02:17:37;;;;;;;;;18.00;18.00;;;;;20.67;98.07;99421.53;6278855;20;2834656;-51
2022/08/29 02:20:07;;;;;;;;;17.50;15.00;;;;;20.59;98.40;99419.63;6278795;20;2818111;-53
2022/08/29 02:22:39;;;;;;;;;17.00;15.50;;;;;20.52;97.91;99424.00;6280636;20;2815152;-52
2022/08/29 02:27:57;;;;;;;;;19.50;17.00;;;;;20.56;98.15;99427.25;6279291;20;2828402;-54
2022/08/29 02:30:25;;;;;;;;;21.50;18.50;;;;;20.44;99.00;99423.97;6281175;20;2835693;-54
2022/08/29 02:32:54;;;;;;;;;14.50;14.50;;;;;20.60;98.11;99428.66;6281283;20;2809761;-50
2022/08/29 02:35:23;;;;;;;;;18.50;16.00;;;;;20.39;99.43;99427.19;6282461;20;2820437;-50
2022/08/29 02:37:52;;;;;;;;;18.00;18.00;;;;;20.44;99.42;99425.84;6278699;20;2837823;-50
2022/08/29 02:40:20;;;;;;;;;18.50;16.50;;;;;20.44;99.09;99432.16;6281407;20;2823202;-49
2022/08/29 02:42:59;;;;;;;;;18.00;18.00;;;;;20.50;98.87;99430.63;6283022;20;3560685;-52
2022/08/29 02:45:29;;;;;;;;;17.00;16.00;;;;;20.50;98.82;99425.19;6312650;20;2821191;-52
2022/08/29 02:47:59;;;;;;;;;18.00;17.50;;;;;20.48;98.77;99427.19;6280853;20;2833626;-51
2022/08/29 02:50:27;;;;;;;;;14.00;14.00;;;;;20.44;98.61;99426.69;6277293;20;3529631;-54
2022/08/29 02:52:56;;;;;;;;;20.00;19.00;;;;;20.44;98.59;99431.28;6280405;20;2831523;-52
2022/08/29 02:55:26;;;;;;;;;15.00;15.00;;;;;20.22;100.00;99432.72;6280142;20;2806556;-55
2022/08/29 02:57:54;;;;;;;;;19.00;18.00;;;;;20.26;100.00;99434.09;6278648;20;2831505;-51
2022/08/29 03:00:26;;;;;;;;;19.00;19.00;;;;;20.17;100.00;99431.34;6279399;20;2828481;-52
2022/08/29 03:02:56;;;;;;;;;19.50;18.50;;;;;20.32;100.00;99428.00;6281370;20;2837765;-52
2022/08/29 03:05:32;;;;;;;;;21.00;18.33;;;;;20.44;99.25;99436.75;6276750;20;2841930;-54
2022/08/29 03:08:06;;;;;;;;;17.00;16.00;;;;;20.19;100.00;99439.34;6314815;20;3569087;-52
2022/08/29 03:10:36;;;;;;;;;14.67;14.33;;;;;19.79;100.00;99443.53;6278316;20;3537815;-53
2022/08/29 03:13:05;;;;;;;;;20.33;19.00;;;;;19.47;100.00;99436.78;6314417;20;3579406;-54
2022/08/29 03:15:35;;;;;;;;;20.00;18.00;;;;;19.58;100.00;99451.16;6276004;20;2840016;-51
2022/08/29 03:18:04;;;;;;;;;20.00;16.00;;;;;19.52;100.00;99453.50;6313107;20;3565854;-54
2022/08/29 03:20:37;;;;;;;;;20.00;19.00;;;;;19.40;100.00;99465.66;6279441;20;2831501;-49
2022/08/29 03:23:06;;;;;;;;;18.00;18.00;;;;;19.44;100.00;99464.34;6275841;20;2837817;-54
2022/08/29 03:25:36;;;;;;;;;19.00;16.00;;;;;19.00;100.00;99468.84;6277058;20;2833727;-56
2022/08/29 03:28:04;;;;;;;;;19.00;18.00;;;;;18.95;100.00;99471.16;6281186;20;2827332;-52
2022/08/29 03:30:34;;;;;;;;;19.50;19.00;;;;;19.02;100.00;99478.56;6275081;20;2842041;-52
2022/08/29 03:33:04;;;;;;;;;15.00;15.00;;;;;19.58;100.00;99481.13;6273726;20;3552342;-52
2022/08/29 03:35:39;;;;;;;;;19.00;19.00;;;;;19.65;100.00;99474.06;6278299;20;2842012;-50
2022/08/29 03:38:08;;;;;;;;;19.00;18.00;;;;;19.62;100.00;99479.81;6278057;20;2834750;-52
2022/08/29 03:40:41;;;;;;;;;18.50;15.00;;;;;19.58;100.00;99489.31;6278635;20;2829501;-54
2022/08/29 03:43:10;;;;;;;;;18.00;18.00;;;;;19.21;100.00;99487.59;6274540;20;2837928;-53
2022/08/29 03:45:39;;;;;;;;;17.33;17.00;;;;;19.18;100.00;99490.63;6279419;20;3573169;-51
2022/08/29 03:48:07;;;;;;;;;21.00;21.00;;;;;19.18;100.00;99496.94;6271970;20;2836823;-53
2022/08/29 03:50:37;;;;;;;;;20.67;19.00;;;;;19.29;100.00;99504.84;6276550;20;2838336;-51
2022/08/29 03:53:06;;;;;;;;;23.33;19.67;;;;;19.32;100.00;99503.69;6313573;20;3578485;-53
2022/08/29 03:55:34;;;;;;;;;19.00;19.00;;;;;19.32;100.00;99506.41;6278721;20;2839944;-53
2022/08/29 03:58:03;;;;;;;;;17.50;17.50;;;;;19.37;100.00;99504.09;6274962;20;2834864;-49
2022/08/29 04:00:32;;;;;;;;;20.33;17.67;;;;;19.23;100.00;99502.75;6284520;20;3574371;-56
2022/08/29 04:03:02;;;;;;;;;24.00;19.33;;;;;19.23;100.00;99501.91;6281636;20;2841038;-57
2022/08/29 04:05:31;;;;;;;;;22.50;19.00;;;;;19.23;100.00;99501.91;6310190;20;2840072;-58
2022/08/29 04:08:02;;;;;;;;;23.00;21.67;;;;;19.38;100.00;99508.53;6273211;20;2840918;-56
2022/08/29 04:10:37;;;;;;;;;21.67;19.00;;;;;19.38;100.00;99505.81;6314720;20;3573195;-57
2022/08/29 04:13:07;;;;;;;;;20.00;18.33;;;;;19.61;100.00;99499.88;6279561;20;3573661;-56
2022/08/29 04:15:40;;;;;;;;;18.50;17.50;;;;;19.69;100.00;99503.56;6280956;20;2827422;-56
2022/08/29 04:18:10;;;;;;;;;21.00;19.00;;;;;19.77;100.00;99504.63;6275917;20;2862789;-55
2022/08/29 04:20:43;;;;;;;;;20.67;18.67;;;;;19.71;100.00;99514.31;6277580;20;3573356;-54
2022/08/29 04:23:13;;;;;;;;;20.00;18.33;;;;;19.15;100.00;99516.28;6279086;20;3575529;-53
2022/08/29 04:25:44;;;;;;;;;27.67;21.00;;;;;19.05;100.00;99521.78;6266143;20;2844178;-55
2022/08/29 04:28:13;;;;;;;;;20.67;18.00;;;;;19.14;100.00;99527.31;6310561;20;3581582;-55
2022/08/29 04:30:50;;;;;;;;;22.00;21.00;;;;;19.10;100.00;99524.06;6276926;20;2834803;-52
2022/08/29 04:33:25;;;;;;;;;21.00;19.00;;;;;18.83;100.00;99523.06;6277590;20;2836846;-54
2022/08/29 04:35:54;;;;;;;;;22.00;20.00;;;;;18.95;100.00;99525.56;6278748;20;3581608;-55
2022/08/29 04:38:23;;;;;;;;;21.67;21.67;;;;;19.01;100.00;99530.41;6279230;20;3578380;-53
2022/08/29 04:40:51;;;;;;;;;20.50;19.50;;;;;19.25;100.00;99532.56;6277247;20;2836735;-55
2022/08/29 04:43:20;;;;;;;;;22.00;21.00;;;;;19.29;100.00;99533.94;6274804;20;2833696;-54
2022/08/29 04:46:01;;;;;;;;;17.50;17.50;;;;;19.66;100.00;99538.41;6274715;20;2835868;-50
2022/08/29 04:48:30;;;;;;;;;22.00;20.50;;;;;20.02;100.00;99531.06;6278278;20;2837797;-53
2022/08/29 04:51:01;;;;;;;;;19.33;19.00;;;;;20.33;100.00;99545.09;6280660;20;3575287;-54
2022/08/29 04:53:30;;;;;;;;;23.00;21.00;;;;;21.11;96.81;99552.31;6277274;20;2839821;-55
2022/08/29 04:56:05;;;;;;;;;22.00;20.67;;;;;20.86;98.33;99558.72;6282872;20;3555512;-54
2022/08/29 04:58:39;;;;;;;;;17.33;16.00;;;;;20.78;98.03;99568.56;6283520;20;3559639;-53
2022/08/29 05:01:21;;;;;;;;;20.33;18.00;;;;;21.11;95.85;99570.56;6309748;20;3577356;-53
2022/08/29 05:03:53;;;;;;;;;20.67;18.33;;;;;21.10;96.12;99564.25;6274153;20;2836744;-51
2022/08/29 05:06:23;;;;;;;;;18.00;18.00;;;;;20.88;98.52;99559.38;6314967;20;3566982;-53
2022/08/29 05:08:53;;;;;;;;;15.50;15.00;;;;;21.17;96.32;99553.50;6274148;20;2812879;-49
2022/08/29 05:11:30;;;;;;;;;17.33;15.67;;;;;21.03;97.67;99557.75;6277520;20;3555436;-49
2022/08/29 05:14:01;;;;;;;;;18.50;16.00;;;;;20.74;99.00;99556.25;6309902;20;2858720;-53
2022/08/29 05:16:33;;;;;;;;;19.00;18.50;;;;;20.68;99.12;99562.38;6277282;20;2834835;-54
2022/08/29 05:19:05;;;;;;;;;17.33;17.33;;;;;20.61;99.61;99569.47;6278600;20;3564840;-53
2022/08/29 05:21:39;;;;;;;;;19.50;17.50;;;;;20.77;99.27;99572.31;6275788;20;2837800;-50
2022/08/29 05:24:11;;;;;;;;;18.33;18.33;;;;;20.81;98.19;99572.84;6277506;20;3575718;-51
2022/08/29 05:26:44;;;;;;;;;21.00;20.50;;;;;21.02;97.87;99573.28;6276157;20;2834639;-54
2022/08/29 05:29:14;;;;;;;;;20.67;19.33;;;;;21.00;97.14;99569.00;6279057;20;2846205;-50
2022/08/29 05:31:43;;;;;;;;;18.33;16.00;;;;;21.87;94.14;99578.63;6310849;20;3557547;-52
2022/08/29 05:34:14;;;;;;;;;14.50;14.50;;;;;21.64;94.73;99575.72;6310353;20;2809118;-50
2022/08/29 05:37:09;;;;;;;;;22.00;19.00;;;;;21.72;93.92;99579.47;6277694;20;2848235;-53
2022/08/29 05:39:39;;;;;;;;;17.67;15.00;;;;;21.65;93.71;99574.69;6284672;20;3547293;-52
2022/08/29 05:42:10;;;;;;;;;17.00;14.00;;;;;21.77;93.34;99564.25;6304186;20;3545005;-53
2022/08/29 05:44:40;;;;;;;;;20.00;16.00;;;;;22.14;91.09;99566.50;6276343;20;2832667;-52
2022/08/29 05:47:13;;;;;;;;;21.50;20.00;;;;;22.70;88.67;99560.28;6278540;20;2843993;-50
2022/08/29 05:49:44;;;;;;;;;16.00;16.00;;;;;23.15;86.05;99564.25;6284427;20;2831719;-51
2022/08/29 05:52:18;;;;;;;;;17.00;17.00;;;;;22.76;86.61;99563.16;6282459;20;2829219;-48
2022/08/29 05:54:47;;;;;;;;;17.00;15.50;;;;;22.66;87.43;99573.44;6282304;20;2817362;-51
2022/08/29 05:57:21;;;;;;;;;15.67;15.67;;;;;22.50;88.48;99568.84;6285084;20;3550397;-52
2022/08/29 05:59:52;;;;;;;;;15.00;15.00;;;;;22.73;88.30;99563.50;6315748;20;2819164;-49
2022/08/29 06:02:23;;;;;;;;;17.50;17.50;;;;;22.92;87.11;99573.19;6281092;20;2837795;-52
2022/08/29 06:04:52;;;;;;;;;17.00;15.00;;;;;22.96;85.96;99569.13;6287936;20;2498215;-53
2022/08/29 06:07:20;;;;;;;;;15.00;14.67;;;;;23.04;86.26;99572.81;6324297;20;3537754;-52
2022/08/29 06:09:53;;;;;;;;;19.00;19.00;;;;;24.11;82.00;99573.88;6320618;20;3564987;-52
2022/08/29 06:12:27;;;;;;;;;19.67;19.00;;;;;26.01;73.64;99583.31;6284428;20;3559609;-52
2022/08/29 06:14:57;;;;;;;;;17.33;16.33;;;;;27.07;68.63;99585.16;6280903;20;2835712;-55
2022/08/29 06:17:26;;;;;;;;;17.00;16.00;;;;;27.97;65.45;99588.72;6319227;20;3559745;-54
2022/08/29 06:19:55;;;;;;;;;17.67;17.33;;;;;26.81;68.44;99589.47;6284993;20;3561942;-53
2022/08/29 06:22:23;;;;;;;;;13.00;13.00;;;;;25.41;73.31;99587.28;6289634;20;3529472;-49
2022/08/29 06:24:54;;;;;;;;;19.00;18.00;;;;;27.23;68.40;99598.63;6318217;20;3576550;-55
2022/08/29 06:27:25;;;;;;;;;18.33;17.33;;;;;27.12;67.19;99601.91;6286395;20;2492008;-50
2022/08/29 06:29:56;;;;;;;;;16.00;16.00;;;;;28.97;61.46;99616.34;6319866;20;3559601;-53
2022/08/29 06:32:29;;;;;;;;;11.33;11.33;;;;;28.51;62.18;99620.84;6315364;20;3532523;-50
2022/08/29 06:34:57;;;;;;;;;16.00;14.00;;;;;27.11;66.59;99619.53;6283150;20;2483713;-51
2022/08/29 06:37:26;;;;;;;;;17.00;15.50;;;;;26.71;67.84;99619.28;6313390;20;2823194;-51
2022/08/29 06:39:55;;;;;;;;;18.50;16.00;;;;;26.40;68.31;99620.47;6283790;20;2826349;-51
2022/08/29 06:42:24;;;;;;;;;15.67;14.33;;;;;26.73;66.62;99625.44;6286553;20;3539981;-55
2022/08/29 06:44:56;;;;;;;;;16.33;14.67;;;;;26.44;67.40;99626.44;6313261;20;2483590;-52
2022/08/29 06:47:25;;;;;;;;;13.00;12.00;;;;;29.24;59.40;99628.19;6318061;20;2491940;-54
2022/08/29 06:49:54;;;;;;;;;15.50;14.50;;;;;34.07;46.38;99648.47;6317971;20;2812904;-58
2022/08/29 06:52:22;;;;;;;;;13.33;11.67;;;;;34.47;44.49;99650.31;6284064;20;3511753;-58
2022/08/29 06:54:51;;;;;;;;;16.67;16.00;;;;;35.00;42.82;99659.28;6288489;20;3568997;-58
2022/08/29 06:57:20;;;;;;;;;13.50;13.50;;;;;35.67;41.99;99653.56;6284237;20;2806502;-58
2022/08/29 06:59:49;;;;;;;;;14.50;13.00;;;;;32.56;47.90;99644.50;6282671;20;2804414;-58
2022/08/29 07:02:17;;;;;;;;;15.33;13.00;;;;;28.23;59.48;99632.06;6291273;20;3538783;-58
2022/08/29 07:04:46;;;;;;;;;15.67;12.67;;;;;26.09;68.49;99626.31;6316078;20;2483712;-54
2022/08/29 07:07:15;;;;;;;;;12.33;10.33;;;;;25.99;69.67;99629.41;6310811;20;3511114;-53
2022/08/29 07:09:43;;;;;;;;;14.33;12.00;;;;;25.95;69.04;99628.09;6287608;20;2485957;-52
2022/08/29 07:12:12;;;;;;;;;11.67;11.67;;;;;26.28;67.85;99628.44;6316427;20;3512755;-53
2022/08/29 07:14:40;;;;;;;;;13.00;12.00;;;;;26.42;68.35;99636.81;6315797;20;3529628;-54
2022/08/29 07:17:09;;;;;;;;;9.00;9.00;;;;;26.32;67.29;99628.88;6281133;20;3478401;-54
2022/08/29 07:19:47;;;;;;;;;11.00;11.00;;;;;26.55;66.72;99634.19;6316924;20;3508571;-51
2022/08/29 07:22:15;;;;;;;;;9.67;9.67;;;;;30.18;55.78;99646.09;6318875;20;2783582;-53
2022/08/29 07:24:44;;;;;;;;;11.00;11.00;;;;;34.88;43.94;99663.00;6313222;20;3511816;-49
2022/08/29 07:27:14;;;;;;;;;13.33;12.00;;;;;35.68;41.75;99671.16;6281120;20;3509646;-52
2022/08/29 07:29:43;;;;;;;;;9.00;9.00;;;;;34.05;44.99;99664.56;6290651;20;2759687;-49
2022/08/29 07:32:17;;;;;;;;;11.00;11.00;;;;;29.39;55.28;99645.38;6314661;20;3514970;-51
2022/08/29 07:34:52;;;;;;;;;9.00;9.00;;;;;27.18;64.71;99638.91;6314191;20;3467973;-49
2022/08/29 07:37:23;;;;;;;;;14.00;13.00;;;;;27.59;63.81;99647.13;6317547;20;3516998;-49
2022/08/29 07:39:52;;;;;;;;;10.00;10.00;;;;;27.75;63.27;99634.88;6319298;20;2485712;-51
2022/08/29 07:42:21;;;;;;;;;11.00;11.00;;;;;27.91;61.82;99644.72;6316163;20;3501272;-53
2022/08/29 07:44:49;;;;;;;;;12.00;12.00;;;;;28.03;61.86;99648.59;6320115;20;2483821;-54
2022/08/29 07:47:18;;;;;;;;;24.67;21.00;;;;;27.90;61.22;99646.63;6315733;20;1899304;-54
2022/08/29 07:49:49;;;;;;;;;195.88;130.50;;;;;27.83;62.29;99644.91;6309621;20;3722121;-51
2022/08/29 07:52:18;;;;;;;;;11.00;11.00;;;;;27.49;62.87;99647.53;6281816;20;3512741;-53
2022/08/29 07:54:48;;;;;;;;;11.67;11.67;;;;;27.67;62.45;99638.69;6283203;20;2784640;-55
2022/08/29 07:57:18;;;;;;;;;10.00;10.00;;;;;26.76;64.99;99648.97;6320540;20;2779395;-54
2022/08/29 07:59:46;;;;;;;;;9.00;9.00;;;;;26.16;67.00;99645.66;6313254;20;3454892;-50
2022/08/29 08:02:15;;;;;;;;;10.00;10.00;;;;;26.73;65.11;99650.22;6313517;20;3513878;-52
2022/08/29 08:04:44;;;;;;;;;13.00;13.00;;;;;27.69;61.98;99652.28;6314984;20;3509773;-55
2022/08/29 08:07:13;;;;;;;;;11.33;11.00;;;;;27.90;61.31;99654.06;6282899;20;2483671;-47
2022/08/29 08:09:43;;;;;;;;;13.67;10.67;;;;;28.08;60.22;99656.25;6314605;20;3509724;-52
2022/08/29 08:12:12;;;;;;;;;10.00;10.00;;;;;28.56;59.19;99653.34;6287060;20;2781560;-52
2022/08/29 08:14:40;;;;;;;;;12.33;12.00;;;;;28.18;59.92;99648.41;6316639;20;3519139;-52
2022/08/29 08:17:10;;;;;;;;;54.33;38.33;;;;;28.85;57.68;99663.97;6282426;20;1920121;-58
2022/08/29 08:19:38;;;;;;;;;10.00;10.00;;;;;28.47;56.98;99666.53;6314314;20;3512767;-58
2022/08/29 08:22:08;;;;;;;;;12.67;12.67;;;;;28.67;56.59;99661.88;6280489;20;3526558;-58
2022/08/29 08:24:37;;;;;;;;;11.00;11.00;;;;;28.66;55.55;99654.63;6312524;20;3512788;-58
2022/08/29 08:27:06;;;;;;;;;16.33;12.33;;;;;28.80;54.97;99660.16;6282982;20;3517964;-58
2022/08/29 08:29:35;;;;;;;;;27.33;20.00;;;;;28.58;56.03;99657.59;6315217;20;3580553;-58
2022/08/29 08:32:04;;;;;;;;;9.67;9.67;;;;;28.99;55.54;99662.06;6287946;20;2770073;-58
2022/08/29 08:34:32;;;;;;;;;12.33;7.33;;;;;28.27;56.12;99660.09;6313403;20;2770036;-58
2022/08/29 08:37:07;;;;;;;;;9.33;9.33;;;;;28.21;56.12;99659.88;6315586;20;2762883;-59
2022/08/29 08:39:37;;;;;;;;;11.33;11.33;;;;;28.87;54.65;99664.59;6312824;20;3514897;-59
2022/08/29 08:42:42;;;;;;;;;9.00;9.00;;;;;28.82;52.78;99649.72;6280817;20;2747184;-57
2022/08/29 08:45:32;;;;;;;;;13.67;11.67;;;;;29.23;55.78;99655.00;6310741;20;3524189;-59
2022/08/29 08:48:21;;;;;;;;;10.00;9.67;;;;;28.92;56.72;99647.38;6310531;20;3501354;-59
2022/08/29 08:50:59;;;;;;;;;10.67;9.33;;;;;29.51;55.48;99651.06;6316119;20;3499262;-56
2022/08/29 08:53:49;;;;;;;;;35.00;30.67;;;;;28.64;57.22;99648.47;6316553;20;3582506;-56
2022/08/29 08:56:51;;;;;;;;;11.00;11.00;;;;;29.43;55.22;99652.16;6279852;20;3517951;-57
2022/08/29 08:59:44;;;;;;;;;12.50;11.50;;;;;29.57;54.71;99655.75;6292125;20;2799229;-56
2022/08/29 09:03:08;;;;;;;;;12.00;12.00;;;;;29.56;54.33;99654.03;6278606;20;3539797;-54
2022/08/29 09:06:11;;;;;;;;;16.00;12.33;;;;;29.42;54.60;99649.63;6283026;20;3525297;-53
2022/08/29 09:09:11;;;;;;;;;9.67;9.67;;;;;29.61;54.36;99656.16;6314148;20;3492945;-56
2022/08/29 09:12:15;;;;;;;;;11.67;11.67;;;;;29.11;55.87;99662.25;6317663;20;2483635;-56
2022/08/29 09:15:01;;;;;;;;;10.00;10.00;;;;;29.19;54.48;99652.88;6313551;20;3493997;-56
2022/08/29 09:18:19;;;;;;;;;10.00;10.00;;;;;29.37;54.45;99650.28;6316393;20;2485672;-56
2022/08/29 09:20:52;;;;;;;;;11.33;11.33;;;;;29.35;54.16;99657.94;6310423;20;3521046;-55
2022/08/29 09:23:44;;;;;;;;;11.00;10.00;;;;;29.03;54.96;99660.53;6308264;20;3513853;-57
2022/08/29 09:26:17;;;;;;;;;11.33;10.67;;;;;28.91;55.02;99656.72;6278745;20;3527325;-57
2022/08/29 09:28:47;;;;;;;;;9.00;8.67;;;;;28.78;54.96;99651.22;6282483;20;3465955;-52
2022/08/29 09:31:32;;;;;;;;;11.00;9.67;;;;;28.76;55.29;99654.19;6303441;20;3497197;-51
2022/08/29 09:34:09;;;;;;;;;8.33;8.33;;;;;29.16;53.72;99656.94;6322563;20;2756531;-56
2022/08/29 09:36:43;;;;;;;;;11.00;10.00;;;;;28.91;54.18;99655.88;6313893;20;3511045;-54
2022/08/29 09:39:32;;;;;;;;;8.00;8.00;;;;;28.96;53.92;99656.94;6311823;20;2744166;-57
2022/08/29 09:42:21;;;;;;;;;9.00;9.00;;;;;29.62;52.93;99660.59;6311834;20;2746093;-56
2022/08/29 09:45:07;;;;;;;;;6.00;6.00;;;;;29.57;52.35;99657.66;6325848;20;2739944;-56
2022/08/29 09:47:36;;;;;;;;;10.00;10.00;;;;;28.71;54.89;99656.75;6310755;20;3500257;-55
2022/08/29 09:50:20;;;;;;;;;9.00;9.00;;;;;28.58;55.22;99657.59;6312080;20;3464980;-55
2022/08/29 09:52:59;;;;;;;;;9.00;9.00;;;;;29.52;53.56;99669.41;6286436;20;3472262;-55
2022/08/29 09:55:43;;;;;;;;;10.67;10.67;;;;;28.82;54.59;99658.03;6301690;20;3510646;-54
2022/08/29 09:58:15;;;;;;;;;10.00;10.00;;;;;28.63;55.11;99663.34;6307990;20;2781705;-55
2022/08/29 10:01:03;;;;;;;;;11.67;10.33;;;;;28.99;54.50;99659.28;6303261;20;3514822;-55
2022/08/29 10:03:41;;;;;;;;;12.33;10.67;;;;;30.20;51.17;99663.31;6302978;20;3518036;-58
2022/08/29 10:06:21;;;;;;;;;10.00;10.00;;;;;30.08;50.89;99662.34;6269605;20;3510671;-55
2022/08/29 10:09:00;;;;;;;;;10.00;10.00;;;;;29.46;52.60;99662.78;6302150;20;3509608;-54
2022/08/29 10:12:02;;;;;;;;;6.33;6.33;;;;;29.05;53.98;99663.97;6312739;20;2732717;-56
2022/08/29 10:15:01;;;;;;;;;8.33;8.33;;;;;28.50;54.91;99652.28;6307544;20;2758681;-57
2022/08/29 10:21:06;;;;;;;;;8.33;8.33;;;;;28.55;54.47;99658.03;6290440;20;2746232;-53
2022/08/29 10:24:37;;;;;;;;;13.67;10.67;;;;;28.41;54.85;99656.28;6298559;20;3517170;-57
2022/08/29 10:27:36;;;;;;;;;12.00;10.33;;;;;28.79;53.38;99647.41;6302356;20;3504457;-54
2022/08/29 10:30:19;;;;;;;;;30.67;22.33;;;;;28.35;54.53;99652.44;6300389;20;3597548;-57
2022/08/29 10:33:18;;;;;;;;;69.33;43.67;;;;;28.44;55.35;99644.88;6269147;20;3644002;-55
2022/08/29 10:36:33;;;;;;;;;50.78;33.67;;;;;29.11;52.18;99642.91;6279582;20;3646581;-57
2022/08/29 10:39:04;;;;;;;;;9.00;9.00;;;;;29.89;49.78;99653.91;6305537;20;2750324;-59
2022/08/29 10:42:18;;;;;;;;;74.25;48.00;;;;;29.15;51.90;99651.59;6324584;20;4416440;-55
2022/08/29 10:45:04;;;;;;;;;9.67;9.67;;;;;28.83;52.97;99640.38;6304044;20;3489845;-56
2022/08/29 10:48:20;;;;;;;;;9.00;9.00;;;;;29.25;51.88;99635.41;6305240;20;3470049;-58
2022/08/29 10:51:22;;;;;;;;;6.00;6.00;;;;;30.12;49.16;99647.84;6313152;20;2609650;-59
2022/08/29 10:54:04;;;;;;;;;12.67;7.67;;;;;30.86;47.31;99647.28;6310703;20;2769288;-59
2022/08/29 10:56:43;;;;;;;;;6.00;5.67;;;;;30.84;48.29;99645.59;6311814;20;2737776;-59
2022/08/29 11:00:15;;;;;;;;;7.00;6.00;;;;;30.52;46.49;99635.63;6315828;20;2740869;-59
2022/08/29 11:03:07;;;;;;;;;10.33;7.67;;;;;30.63;46.43;99632.97;6305156;20;2760663;-59
2022/08/29 11:05:48;;;;;;;;;6.67;6.67;;;;;31.33;45.21;99631.00;6310156;20;2738934;-59
2022/08/29 11:08:33;;;;;;;;;8.00;6.33;;;;;32.13;44.26;99631.69;6317221;20;2734683;-59
2022/08/29 11:11:02;;;;;;;;;8.67;8.67;;;;;31.93;44.98;99636.69;6303931;20;2741097;-59
2022/08/29 11:14:06;;;;;;;;;8.67;8.67;;;;;30.07;50.84;99630.16;6289780;20;3480563;-55
2022/08/29 11:16:54;;;;;;;;;9.67;9.67;;;;;29.96;51.35;99618.75;6299736;20;3484820;-56
2022/08/29 11:20:01;;;;;;;;;12.00;11.00;;;;;29.25;52.94;99618.81;6310623;20;2789874;-51
2022/08/29 11:23:03;;;;;;;;;12.00;10.00;;;;;29.30;53.18;99614.34;6308510;20;3510640;-59
2022/08/29 11:25:40;;;;;;;;;11.00;11.00;;;;;30.14;51.62;99622.66;6285986;20;2483616;-53
2022/08/29 11:29:08;;;;;;;;;13.67;11.67;;;;;29.12;54.69;99616.09;6302210;20;3516915;-50
2022/08/29 11:32:01;;;;;;;;;12.00;11.00;;;;;28.77;55.25;99610.84;6298863;20;3507734;-52
2022/08/29 11:34:59;;;;;;;;;10.00;10.00;;;;;28.62;55.59;99613.81;6305100;20;3495132;-50
2022/08/29 11:37:37;;;;;;;;;11.67;10.67;;;;;29.29;54.08;99617.34;6300599;20;2782634;-53
2022/08/29 11:40:42;;;;;;;;;12.67;10.67;;;;;29.09;53.68;99609.94;6305087;20;2791944;-47
2022/08/29 11:43:42;;;;;;;;;11.33;11.33;;;;;29.03;54.65;99615.47;6297247;20;3526260;-49
2022/08/29 11:46:14;;;;;;;;;11.00;11.00;;;;;28.80;55.00;99615.94;6271524;20;2789002;-52
2022/08/29 11:48:51;;;;;;;;;14.33;13.00;;;;;28.65;54.33;99605.97;6304747;20;3513840;-51